Time;durP1;ratioP1;P1;durP2;ratioP2;P2;SDS_P1;SDS_P2;PMS_P1;PMS_P2;Temp;Humidity;BMP_temperature;BMP_pressure;BME280_temperature;BME280_humidity;BME280_pressure;Samples;Min_cycle;Max_cycle;Signal;HPM_P1;HPM_P2
2023/07/26 00:01:25;;;;;;;;;;;27.00;48.70;;;;;;5046272;28;42841;-86
2023/07/26 00:03:55;;;;;;;;;;;26.90;49.20;;;;;;5045414;28;43136;-88
2023/07/26 00:06:20;;;;;;;;;;;26.90;49.60;;;;;;5045080;28;43537;-79
2023/07/26 00:08:46;;;;;;;;;;;26.90;50.20;;;;;;5044958;28;43325;-87
2023/07/26 00:11:11;;;;;;;;;;;26.70;50.50;;;;;;5045414;28;43026;-88
2023/07/26 00:13:37;;;;;;;;;;;26.90;51.10;;;;;;5045193;28;43150;-88
2023/07/26 00:16:02;;;;;;;;;;;26.90;51.60;;;;;;5046395;28;43360;-88
2023/07/26 00:18:28;;;;;;;;;;;27.00;52.10;;;;;;5046381;28;42911;-87
2023/07/26 00:20:53;;;;;;;;;;;26.90;52.40;;;;;;5045789;28;42946;-88
2023/07/26 00:23:19;;;;;;;;;;;26.90;52.70;;;;;;5046658;28;43001;-87
2023/07/26 00:25:44;;;;;;;;;;;26.90;53.00;;;;;;5045926;28;43008;-87
2023/07/26 00:28:10;;;;;;;;;;;26.90;53.20;;;;;;5046098;28;43167;-87
2023/07/26 00:30:35;;;;;;;;;;;26.90;53.40;;;;;;5046286;28;42981;-88
2023/07/26 00:33:01;;;;;;;;;;;26.90;53.70;;;;;;5045903;28;42939;-86
2023/07/26 00:35:31;;;;;;;;;;;26.90;53.90;;;;;;5045849;28;43327;-88
2023/07/26 00:37:57;;;;;;;;;;;26.90;54.20;;;;;;5044421;28;42948;-84
2023/07/26 00:40:22;;;;;;;;;;;26.90;54.40;;;;;;5046253;28;42965;-80
2023/07/26 00:42:48;;;;;;;;;;;26.90;54.70;;;;;;5045873;28;44049;-86
2023/07/26 00:45:13;;;;;;;;;;;26.90;54.90;;;;;;5045263;28;42806;-86
2023/07/26 00:47:39;;;;;;;;;;;26.90;55.10;;;;;;5046213;28;42976;-87
2023/07/26 00:50:05;;;;;;;;;;;26.90;55.40;;;;;;5044048;28;43182;-84
2023/07/26 00:52:31;;;;;;;;;;;26.90;55.60;;;;;;5045478;28;43755;-88
2023/07/26 00:55:00;;;;;;;;;;;26.90;55.90;;;;;;5046104;28;43604;-86
2023/07/26 00:57:25;;;;;;;;;;;26.90;56.10;;;;;;5045409;28;42990;-85
2023/07/26 00:59:51;;;;;;;;;;;26.80;56.30;;;;;;5045990;28;43559;-85
2023/07/26 01:02:16;;;;;;;;;;;26.80;56.40;;;;;;5045750;28;42962;-87
2023/07/26 01:04:42;;;;;;;;;;;26.80;56.70;;;;;;5045654;28;42943;-86
2023/07/26 01:07:37;;;;;;;;;;;26.80;56.80;;;;;;5045291;28;42947;-87
2023/07/26 01:10:13;;;;;;;;;;;26.80;56.90;;;;;;4990019;28;42891;-87
2023/07/26 01:12:42;;;;;;;;;;;26.80;57.00;;;;;;5044800;28;42971;-86
2023/07/26 01:15:10;;;;;;;;;;;26.80;57.10;;;;;;5044991;28;43691;-87
2023/07/26 01:17:36;;;;;;;;;;;26.70;57.10;;;;;;5045062;28;43048;-87
2023/07/26 01:20:02;;;;;;;;;;;26.70;57.20;;;;;;5045043;28;43815;-86
2023/07/26 01:22:27;;;;;;;;;;;26.80;57.30;;;;;;5044934;28;43166;-86
2023/07/26 01:24:53;;;;;;;;;;;26.70;57.20;;;;;;5034658;28;43586;-87
2023/07/26 01:27:18;;;;;;;;;;;26.70;57.20;;;;;;5041822;28;42874;-80
2023/07/26 01:29:44;;;;;;;;;;;26.70;57.20;;;;;;5043322;28;43807;-84
2023/07/26 01:32:11;;;;;;;;;;;26.70;56.70;;;;;;5044547;28;42935;-83
2023/07/26 01:34:37;;;;;;;;;;;26.70;57.20;;;;;;5043719;28;43672;-88
2023/07/26 01:37:03;;;;;;;;;;;25.80;56.10;;;;;;5044267;28;43208;-87
2023/07/26 01:39:28;;;;;;;;;;;26.70;57.20;;;;;;5044708;28;43022;-84
2023/07/26 01:41:54;;;;;;;;;;;26.60;56.50;;;;;;5044619;28;42880;-87
2023/07/26 01:44:20;;;;;;;;;;;26.70;57.00;;;;;;5043192;28;43776;-82
2023/07/26 01:46:46;;;;;;;;;;;26.70;57.10;;;;;;5044776;28;43063;-88
2023/07/26 01:49:12;;;;;;;;;;;26.70;57.10;;;;;;5042875;28;44229;-87
2023/07/26 01:51:38;;;;;;;;;;;26.70;57.00;;;;;;5044462;28;43005;-87
2023/07/26 01:54:03;;;;;;;;;;;26.70;57.10;;;;;;5043405;28;43031;-84
2023/07/26 01:56:31;;;;;;;;;;;26.60;56.90;;;;;;5043087;28;59681;-86
2023/07/26 01:58:56;;;;;;;;;;;26.70;57.00;;;;;;5044085;28;43726;-86
2023/07/26 02:01:22;;;;;;;;;;;26.70;57.10;;;;;;5044659;28;43088;-87
2023/07/26 02:03:47;;;;;;;;;;;26.70;57.00;;;;;;5043160;28;43545;-83
2023/07/26 02:06:13;;;;;;;;;;;26.70;57.10;;;;;;5044710;28;43325;-86
2023/07/26 02:08:38;;;;;;;;;;;26.70;57.00;;;;;;5043502;28;43002;-81
2023/07/26 02:11:04;;;;;;;;;;;26.70;57.20;;;;;;5042378;28;43184;-87
2023/07/26 02:13:29;;;;;;;;;;;26.60;57.20;;;;;;5043366;28;42931;-84
2023/07/26 02:15:55;;;;;;;;;;;26.60;57.20;;;;;;5044360;28;43098;-86
2023/07/26 02:18:21;;;;;;;;;;;26.70;57.30;;;;;;5043388;28;43548;-88
2023/07/26 02:20:47;;;;;;;;;;;26.60;57.10;;;;;;5043997;28;43199;-87
2023/07/26 02:23:12;;;;;;;;;;;26.60;56.60;;;;;;5043085;28;43874;-86
2023/07/26 02:25:38;;;;;;;;;;;26.60;57.10;;;;;;5043676;28;42963;-86
2023/07/26 02:28:03;;;;;;;;;;;26.60;57.10;;;;;;5042683;28;43091;-83
2023/07/26 02:30:29;;;;;;;;;;;26.60;57.20;;;;;;5040019;28;44727;-88
2023/07/26 02:32:54;;;;;;;;;;;26.60;57.20;;;;;;5043107;28;43498;-87
2023/07/26 02:35:20;;;;;;;;;;;26.60;57.10;;;;;;5043076;28;42948;-80
2023/07/26 02:37:45;;;;;;;;;;;26.50;57.30;;;;;;5042927;28;43735;-88
2023/07/26 02:40:11;;;;;;;;;;;26.50;57.20;;;;;;5043518;28;42911;-89
2023/07/26 02:42:36;;;;;;;;;;;26.50;57.20;;;;;;5043231;28;43790;-88
2023/07/26 02:45:02;;;;;;;;;;;26.40;57.10;;;;;;5042892;28;42998;-86
2023/07/26 02:47:31;;;;;;;;;;;26.40;57.10;;;;;;5043364;28;43269;-87
2023/07/26 02:49:56;;;;;;;;;;;26.40;57.00;;;;;;5042954;28;42985;-87
2023/07/26 02:52:22;;;;;;;;;;;26.30;56.90;;;;;;5043641;28;43132;-88
2023/07/26 02:54:47;;;;;;;;;;;26.30;56.70;;;;;;5043319;28;42935;-88
2023/07/26 02:57:13;;;;;;;;;;;26.30;56.60;;;;;;5042946;28;42840;-88
2023/07/26 02:59:40;;;;;;;;;;;26.30;56.20;;;;;;5043472;28;42963;-80
2023/07/26 03:02:06;;;;;;;;;;;26.30;56.00;;;;;;5042954;28;42895;-83
2023/07/26 03:04:31;;;;;;;;;;;26.30;55.70;;;;;;5041381;28;43033;-81
2023/07/26 03:06:57;;;;;;;;;;;26.20;54.90;;;;;;5041943;28;43799;-86
2023/07/26 03:09:22;;;;;;;;;;;26.20;55.10;;;;;;5043089;28;42913;-87
2023/07/26 03:11:48;;;;;;;;;;;26.20;54.60;;;;;;5042727;28;43371;-80
2023/07/26 03:14:13;;;;;;;;;;;26.20;54.50;;;;;;5043482;28;42824;-87
2023/07/26 03:16:39;;;;;;;;;;;26.20;54.10;;;;;;5042759;28;42864;-86
2023/07/26 03:19:04;;;;;;;;;;;26.20;54.10;;;;;;5043040;28;42887;-87
2023/07/26 03:21:30;;;;;;;;;;;26.10;53.80;;;;;;5045431;28;43848;-87
2023/07/26 03:23:55;;;;;;;;;;;26.10;53.70;;;;;;5045074;28;42987;-82
2023/07/26 03:26:21;;;;;;;;;;;26.10;53.80;;;;;;5047003;28;43540;-86
2023/07/26 03:28:46;;;;;;;;;;;26.10;53.80;;;;;;5046871;28;43537;-85
2023/07/26 03:31:12;;;;;;;;;;;26.10;53.90;;;;;;5045620;28;42919;-85
2023/07/26 03:33:37;;;;;;;;;;;26.20;54.10;;;;;;5046224;28;42967;-87
2023/07/26 03:36:03;;;;;;;;;;;26.10;53.50;;;;;;5046437;28;42885;-86
2023/07/26 03:38:29;;;;;;;;;;;26.20;53.90;;;;;;5045935;28;42912;-87
2023/07/26 03:40:56;;;;;;;;;;;26.20;53.70;;;;;;5041884;28;42909;-90
2023/07/26 03:43:21;;;;;;;;;;;26.20;53.70;;;;;;5045317;28;42914;-86
2023/07/26 03:45:47;;;;;;;;;;;26.20;53.70;;;;;;5045454;28;43432;-90
2023/07/26 03:48:12;;;;;;;;;;;26.20;54.00;;;;;;5045650;28;42946;-88
2023/07/26 03:50:38;;;;;;;;;;;26.20;53.70;;;;;;5045041;28;42939;-90
2023/07/26 03:53:03;;;;;;;;;;;26.20;53.50;;;;;;5039257;28;43023;-90
2023/07/26 03:55:29;;;;;;;;;;;26.20;53.50;;;;;;5046623;28;43401;-81
2023/07/26 03:57:54;;;;;;;;;;;26.20;53.40;;;;;;5045851;28;42980;-85
2023/07/26 04:00:20;;;;;;;;;;;26.20;53.40;;;;;;5046219;28;43512;-90
2023/07/26 04:02:45;;;;;;;;;;;26.20;53.20;;;;;;5043527;28;43060;-92
2023/07/26 04:05:11;;;;;;;;;;;26.20;53.00;;;;;;5046027;28;43003;-85
2023/07/26 04:07:36;;;;;;;;;;;26.10;52.80;;;;;;5046448;28;43029;-93
2023/07/26 04:10:02;;;;;;;;;;;26.00;53.00;;;;;;5046716;28;43466;-93
2023/07/26 04:12:28;;;;;;;;;;;26.10;53.10;;;;;;5037984;28;42985;-92
2023/07/26 04:14:53;;;;;;;;;;;26.10;52.60;;;;;;5045976;28;43691;-91
2023/07/26 04:17:19;;;;;;;;;;;26.00;52.30;;;;;;5044243;28;43011;-88
2023/07/26 04:19:45;;;;;;;;;;;26.00;52.00;;;;;;5039482;28;42988;-89
2023/07/26 04:22:10;;;;;;;;;;;26.00;52.20;;;;;;5041543;28;43125;-84
2023/07/26 04:24:40;;;;;;;;;;;26.00;52.10;;;;;;5044895;28;43135;-91
2023/07/26 04:27:06;;;;;;;;;;;26.00;52.30;;;;;;5046643;28;42958;-92
2023/07/26 04:29:31;;;;;;;;;;;26.00;52.20;;;;;;5046069;28;43245;-91
2023/07/26 04:31:57;;;;;;;;;;;26.00;52.20;;;;;;5042901;28;43002;-83
2023/07/26 04:34:22;;;;;;;;;;;26.00;52.00;;;;;;5045161;28;43847;-88
2023/07/26 04:36:48;;;;;;;;;;;26.00;51.30;;;;;;5038783;28;43096;-91
2023/07/26 04:39:13;;;;;;;;;;;26.00;52.00;;;;;;5045848;28;42901;-90
2023/07/26 04:41:39;;;;;;;;;;;26.00;52.00;;;;;;5059780;28;43041;-95
2023/07/26 04:44:04;;;;;;;;;;;26.00;51.90;;;;;;5064618;28;45597;-90
2023/07/26 04:46:30;;;;;;;;;;;26.00;52.10;;;;;;5050868;28;43113;-91
2023/07/26 04:48:55;;;;;;;;;;;26.00;52.20;;;;;;5036901;28;42904;-80
2023/07/26 04:51:23;;;;;;;;;;;25.90;51.60;;;;;;5039347;28;43307;-80
2023/07/26 04:53:49;;;;;;;;;;;25.90;52.30;;;;;;5045714;28;43291;-85
2023/07/26 04:56:15;;;;;;;;;;;25.90;52.20;;;;;;5045684;28;43062;-84
2023/07/26 04:58:41;;;;;;;;;;;25.90;52.40;;;;;;5045415;28;44123;-80
2023/07/26 05:01:07;;;;;;;;;;;26.00;52.40;;;;;;5045377;28;43046;-85
2023/07/26 05:03:32;;;;;;;;;;;25.90;52.40;;;;;;5043805;28;43452;-80
2023/07/26 05:05:58;;;;;;;;;;;26.00;52.40;;;;;;5041915;28;43254;-80
2023/07/26 05:08:24;;;;;;;;;;;26.00;52.30;;;;;;5041454;28;43339;-85
2023/07/26 05:10:50;;;;;;;;;;;26.00;52.10;;;;;;5045928;28;42975;-85
2023/07/26 05:13:16;;;;;;;;;;;25.90;51.90;;;;;;5043587;28;42895;-81
2023/07/26 05:15:41;;;;;;;;;;;26.00;52.10;;;;;;5041720;28;42995;-86
2023/07/26 05:18:07;;;;;;;;;;;26.00;51.90;;;;;;5045573;28;43606;-87
2023/07/26 05:20:32;;;;;;;;;;;26.00;51.80;;;;;;5044698;28;43059;-86
2023/07/26 05:22:58;;;;;;;;;;;26.00;52.30;;;;;;5044999;28;43562;-86
2023/07/26 05:25:23;;;;;;;;;;;26.10;51.70;;;;;;5045154;28;43081;-86
2023/07/26 05:27:49;;;;;;;;;;;26.10;51.60;;;;;;5045387;28;43402;-87
2023/07/26 05:30:17;;;;;;;;;;;26.10;51.60;;;;;;5045199;28;43158;-86
2023/07/26 05:32:43;;;;;;;;;;;26.10;51.60;;;;;;5034497;28;43579;-86
2023/07/26 05:35:08;;;;;;;;;;;26.10;51.60;;;;;;5036284;28;42966;-86
2023/07/26 05:37:34;;;;;;;;;;;26.10;51.60;;;;;;5034697;28;44651;-86
2023/07/26 05:40:00;;;;;;;;;;;26.10;51.50;;;;;;5045132;28;43077;-85
2023/07/26 05:42:25;;;;;;;;;;;26.10;51.50;;;;;;5041768;28;44828;-84
2023/07/26 05:44:51;;;;;;;;;;;26.20;51.70;;;;;;5037088;28;42923;-82
2023/07/26 05:47:16;;;;;;;;;;;26.20;51.70;;;;;;5041898;28;43745;-80
2023/07/26 05:49:42;;;;;;;;;;;26.30;51.80;;;;;;5044577;28;43222;-83
2023/07/26 05:52:08;;;;;;;;;;;26.30;51.70;;;;;;5044636;28;43037;-84
2023/07/26 05:54:34;;;;;;;;;;;26.30;51.80;;;;;;5044893;28;42898;-84
2023/07/26 05:56:59;;;;;;;;;;;26.30;51.80;;;;;;5045397;28;43633;-83
2023/07/26 05:59:25;;;;;;;;;;;26.30;51.90;;;;;;5044824;28;43029;-81
2023/07/26 06:01:51;;;;;;;;;;;26.30;51.90;;;;;;5044155;28;43628;-79
2023/07/26 06:04:16;;;;;;;;;;;26.30;52.00;;;;;;5044575;28;43306;-79
2023/07/26 06:06:42;;;;;;;;;;;26.40;52.10;;;;;;5044233;28;43482;-79
2023/07/26 06:09:09;;;;;;;;;;;26.40;52.00;;;;;;5045036;28;43002;-80
2023/07/26 06:11:34;;;;;;;;;;;26.40;51.90;;;;;;5044023;28;43390;-80
2023/07/26 06:14:00;;;;;;;;;;;26.40;51.70;;;;;;5044582;28;43034;-79
2023/07/26 06:16:26;;;;;;;;;;;26.40;52.00;;;;;;5043629;28;43043;-80
2023/07/26 06:18:52;;;;;;;;;;;26.40;51.90;;;;;;5043843;28;43030;-79
2023/07/26 06:21:18;;;;;;;;;;;26.50;51.80;;;;;;5043002;28;42955;-79
2023/07/26 06:23:44;;;;;;;;;;;26.50;51.80;;;;;;5044607;28;43072;-80
2023/07/26 06:26:10;;;;;;;;;;;26.50;51.80;;;;;;5044068;28;43834;-81
2023/07/26 06:28:35;;;;;;;;;;;26.50;52.00;;;;;;5044112;28;42971;-83
2023/07/26 06:31:01;;;;;;;;;;;26.50;52.00;;;;;;5041812;28;44356;-80
2023/07/26 06:33:26;;;;;;;;;;;26.50;51.80;;;;;;5034397;28;42896;-81
2023/07/26 06:35:52;;;;;;;;;;;26.50;51.50;;;;;;5043836;28;43985;-82
2023/07/26 06:38:18;;;;;;;;;;;26.50;51.20;;;;;;5043654;28;42979;-82
2023/07/26 06:40:44;;;;;;;;;;;26.50;50.80;;;;;;5044553;28;43200;-80
2023/07/26 06:43:09;;;;;;;;;;;26.50;51.40;;;;;;5044059;28;42994;-81
2023/07/26 06:45:35;;;;;;;;;;;26.50;51.50;;;;;;5038551;28;43025;-84
2023/07/26 06:48:00;;;;;;;;;;;26.50;51.20;;;;;;5035258;28;43143;-84
2023/07/26 06:50:26;;;;;;;;;;;26.60;51.90;;;;;;5037623;28;43454;-81
2023/07/26 06:52:51;;;;;;;;;;;26.60;52.00;;;;;;5043955;28;42958;-83
2023/07/26 06:55:17;;;;;;;;;;;26.60;52.00;;;;;;5048745;28;42908;-81
2023/07/26 06:57:42;;;;;;;;;;;26.60;51.90;;;;;;5050597;28;42877;-81
2023/07/26 07:00:12;;;;;;;;;;;26.60;52.10;;;;;;5038233;28;43755;-80
2023/07/26 07:02:38;;;;;;;;;;;26.70;52.10;;;;;;5047185;28;42843;-79
2023/07/26 07:05:04;;;;;;;;;;;26.70;52.00;;;;;;5036594;28;43332;-81
2023/07/26 07:07:29;;;;;;;;;;;26.70;52.00;;;;;;5040514;28;42919;-82
2023/07/26 07:09:55;;;;;;;;;;;26.60;52.00;;;;;;5043447;28;43031;-81
2023/07/26 07:12:21;;;;;;;;;;;26.70;52.00;;;;;;5044948;28;42797;-82
2023/07/26 07:14:46;;;;;;;;;;;26.60;52.20;;;;;;5049931;28;42935;-81
2023/07/26 07:17:11;;;;;;;;;;;26.70;51.80;;;;;;5049990;28;43155;-81
2023/07/26 07:19:37;;;;;;;;;;;26.70;51.80;;;;;;5042013;28;43337;-84
2023/07/26 07:22:03;;;;;;;;;;;24.10;50.70;;;;;;5038709;28;43165;-86
2023/07/26 07:24:28;;;;;;;;;;;26.60;51.90;;;;;;5049593;28;43407;-86
2023/07/26 07:26:54;;;;;;;;;;;26.60;52.00;;;;;;5050178;28;42891;-80
2023/07/26 07:29:19;;;;;;;;;;;26.70;52.20;;;;;;5047580;28;43044;-86
2023/07/26 07:31:45;;;;;;;;;;;26.70;52.10;;;;;;5050602;28;43003;-87
2023/07/26 07:34:10;;;;;;;;;;;26.70;52.10;;;;;;5037194;28;43561;-83
2023/07/26 07:36:36;;;;;;;;;;;26.70;52.00;;;;;;5050466;28;42989;-87
2023/07/26 07:39:01;;;;;;;;;;;26.70;51.80;;;;;;5049612;28;42997;-82
2023/07/26 07:41:27;;;;;;;;;;;26.70;51.90;;;;;;5050578;28;43025;-83
2023/07/26 07:43:52;;;;;;;;;;;26.70;52.00;;;;;;5050393;28;42899;-84
2023/07/26 07:46:18;;;;;;;;;;;26.70;51.50;;;;;;5050306;28;42838;-87
2023/07/26 07:48:43;;;;;;;;;;;26.70;52.10;;;;;;5050014;28;42938;-86
2023/07/26 07:51:09;;;;;;;;;;;26.70;52.00;;;;;;5049830;28;42832;-84
2023/07/26 07:53:34;;;;;;;;;;;26.70;52.00;;;;;;5049578;28;43693;-86
2023/07/26 07:56:00;;;;;;;;;;;26.70;51.90;;;;;;5047926;28;42892;-85
2023/07/26 07:58:26;;;;;;;;;;;26.70;51.80;;;;;;5049423;28;42968;-83
2023/07/26 08:00:59;;;;;;;;;;;26.70;51.90;;;;;;5049646;28;42814;-87
2023/07/26 08:03:24;;;;;;;;;;;26.70;51.70;;;;;;5048350;28;42994;-86
2023/07/26 08:05:50;;;;;;;;;;;26.70;52.00;;;;;;5048433;28;43047;-80
2023/07/26 08:08:15;;;;;;;;;;;26.70;52.00;;;;;;5046419;28;43782;-87
2023/07/26 08:10:41;;;;;;;;;;;26.70;52.10;;;;;;5046354;28;42873;-85
2023/07/26 08:13:06;;;;;;;;;;;26.80;52.30;;;;;;5045915;28;42939;-85
2023/07/26 08:15:34;;;;;;;;;;;26.80;52.30;;;;;;5046271;28;42925;-87
2023/07/26 08:18:00;;;;;;;;;;;26.80;52.20;;;;;;5045793;28;43470;-79
2023/07/26 08:20:25;;;;;;;;;;;26.80;52.30;;;;;;5045788;28;42954;-81
2023/07/26 08:22:51;;;;;;;;;;;26.80;52.30;;;;;;5045668;28;43771;-83
2023/07/26 08:25:16;;;;;;;;;;;26.80;50.10;;;;;;5046492;28;42851;-82
2023/07/26 08:27:42;;;;;;;;;;;26.70;49.40;;;;;;5046192;28;43886;-82
2023/07/26 08:30:08;;;;;;;;;;;26.70;50.00;;;;;;5046742;28;42985;-83
2023/07/26 08:32:33;;;;;;;;;;;26.70;50.10;;;;;;5044108;28;44314;-82
2023/07/26 08:34:59;;;;;;;;;;;26.70;50.30;;;;;;5045892;28;42974;-83
2023/07/26 08:37:27;;;;;;;;;;;26.70;49.80;;;;;;5044539;28;43010;-80
2023/07/26 08:39:53;;;;;;;;;;;26.80;49.50;;;;;;5045612;28;42938;-81
2023/07/26 08:42:19;;;;;;;;;;;27.40;49.40;;;;;;5044377;28;43467;-82
2023/07/26 08:44:47;;;;;;;;;;;26.70;49.10;;;;;;5045016;28;42998;-82
2023/07/26 08:47:13;;;;;;;;;;;26.70;49.30;;;;;;5044774;28;42954;-85
2023/07/26 08:49:39;;;;;;;;;;;26.70;49.00;;;;;;5044835;28;42897;-82
2023/07/26 08:52:05;;;;;;;;;;;26.80;49.30;;;;;;5044787;28;44032;-83
2023/07/26 08:54:32;;;;;;;;;;;26.70;49.30;;;;;;5043460;28;42913;-84
2023/07/26 08:56:57;;;;;;;;;;;26.80;49.50;;;;;;5044428;28;43690;-84
2023/07/26 08:59:24;;;;;;;;;;;26.80;48.90;;;;;;5045326;28;42966;-84
2023/07/26 09:01:50;;;;;;;;;;;26.80;48.70;;;;;;5045240;28;42995;-83
2023/07/26 09:04:16;;;;;;;;;;;26.70;48.90;;;;;;5045243;28;42931;-83
2023/07/26 09:06:41;;;;;;;;;;;26.70;48.60;;;;;;5043446;28;43112;-84
2023/07/26 09:09:07;;;;;;;;;;;26.70;48.90;;;;;;5045132;28;42887;-84
2023/07/26 09:11:33;;;;;;;;;;;26.70;49.00;;;;;;5044456;28;43062;-85
2023/07/26 09:14:02;;;;;;;;;;;26.70;48.50;;;;;;5044274;28;43048;-85
2023/07/26 09:16:29;;;;;;;;;;;26.80;49.40;;;;;;5042495;28;45364;-86
2023/07/26 09:18:55;;;;;;;;;;;26.90;47.60;;;;;;5043960;28;42994;-85
2023/07/26 09:21:23;;;;;;;;;;;27.10;48.40;;;;;;5042957;28;45011;-85
2023/07/26 09:23:49;;;;;;;;;;;26.80;48.60;;;;;;5043602;28;42961;-85
2023/07/26 09:26:14;;;;;;;;;;;27.00;50.00;;;;;;5043129;28;45189;-85
2023/07/26 09:28:50;;;;;;;;;;;26.80;48.60;;;;;;5045731;28;42995;-84
2023/07/26 09:31:28;;;;;;;;;;;26.70;47.90;;;;;;5043641;28;43375;-85
2023/07/26 09:33:54;;;;;;;;;;;26.70;48.60;;;;;;5043581;28;43052;-84
2023/07/26 09:36:19;;;;;;;;;;;26.70;47.70;;;;;;5042984;28;45367;-85
2023/07/26 09:38:46;;;;;;;;;;;26.70;48.20;;;;;;5045155;28;42990;-85
2023/07/26 09:41:24;;;;;;;;;;;26.80;48.10;;;;;;5044949;28;44117;-84
2023/07/26 09:43:50;;;;;;;;;;;26.80;47.90;;;;;;5044109;28;42954;-85
2023/07/26 09:46:15;;;;;;;;;;;26.70;47.90;;;;;;5045042;28;42992;-86
2023/07/26 09:48:58;;;;;;;;;;;26.80;47.90;;;;;;5045056;28;42871;-85
2023/07/26 09:51:25;;;;;;;;;;;26.50;48.20;;;;;;5042980;28;44758;-86
2023/07/26 09:53:54;;;;;;;;;;;27.00;48.80;;;;;;5045127;28;42939;-85
2023/07/26 09:56:20;;;;;;;;;;;26.70;48.30;;;;;;5044744;28;43861;-84
2023/07/26 09:58:46;;;;;;;;;;;26.80;48.40;;;;;;5043908;28;43036;-86
2023/07/26 10:01:12;;;;;;;;;;;27.20;49.30;;;;;;5044603;28;43149;-84
2023/07/26 10:03:38;;;;;;;;;;;26.80;48.60;;;;;;5044644;28;43616;-85
2023/07/26 10:06:04;;;;;;;;;;;26.80;49.00;;;;;;5044134;28;43792;-84
2023/07/26 10:08:31;;;;;;;;;;;26.80;48.60;;;;;;5044544;28;42978;-85
2023/07/26 10:10:57;;;;;;;;;;;26.80;48.70;;;;;;5044132;28;42988;-84
2023/07/26 10:13:24;;;;;;;;;;;26.80;48.90;;;;;;5044600;28;43866;-82
2023/07/26 10:15:50;;;;;;;;;;;26.80;49.30;;;;;;5044088;28;43517;-86
2023/07/26 10:18:19;;;;;;;;;;;26.80;48.80;;;;;;5045270;28;42970;-83
2023/07/26 10:20:45;;;;;;;;;;;26.70;48.50;;;;;;5044919;28;42971;-85
2023/07/26 10:23:11;;;;;;;;;;;27.10;49.30;;;;;;5044693;28;42982;-85
2023/07/26 10:25:37;;;;;;;;;;;26.80;48.50;;;;;;5044589;28;43532;-84
2023/07/26 10:28:03;;;;;;;;;;;26.80;49.20;;;;;;5043061;28;43098;-84
2023/07/26 10:30:29;;;;;;;;;;;26.80;49.30;;;;;;5043348;28;43002;-85
2023/07/26 10:32:55;;;;;;;;;;;27.00;50.30;;;;;;5043668;28;43007;-85
2023/07/26 10:35:33;;;;;;;;;;;26.90;49.20;;;;;;5043250;28;43099;-85
2023/07/26 10:38:02;;;;;;;;;;;26.90;49.00;;;;;;5042614;28;43022;-85
2023/07/26 10:40:34;;;;;;;;;;;26.80;48.30;;;;;;5044098;28;43317;-84
2023/07/26 10:43:16;;;;;;;;;;;26.80;48.80;;;;;;5043538;28;42951;-85
2023/07/26 10:45:43;;;;;;;;;;;26.90;49.20;;;;;;5044590;28;42950;-84
2023/07/26 10:48:30;;;;;;;;;;;26.90;49.10;;;;;;5043820;28;43503;-84
2023/07/26 10:50:56;;;;;;;;;;;26.80;48.30;;;;;;5042923;28;42935;-84
2023/07/26 10:53:30;;;;;;;;;;;26.80;48.70;;;;;;5044372;28;42895;-83
2023/07/26 10:56:07;;;;;;;;;;;26.80;48.50;;;;;;5043472;28;42994;-85
2023/07/26 10:58:33;;;;;;;;;;;26.90;49.00;;;;;;5043925;28;42926;-85
2023/07/26 11:01:04;;;;;;;;;;;26.80;47.70;;;;;;5042047;28;45202;-85
2023/07/26 11:03:30;;;;;;;;;;;26.80;48.30;;;;;;5036681;28;43142;-85
2023/07/26 11:05:56;;;;;;;;;;;26.80;47.80;;;;;;5034843;28;43574;-84
2023/07/26 11:08:40;;;;;;;;;;;26.80;48.30;;;;;;5042220;28;43058;-85
2023/07/26 11:11:06;;;;;;;;;;;26.80;48.30;;;;;;5042742;28;44143;-84
2023/07/26 11:13:32;;;;;;;;;;;26.80;47.50;;;;;;5043237;28;43272;-84
2023/07/26 11:16:00;;;;;;;;;;;26.80;47.70;;;;;;5042393;28;45040;-85
2023/07/26 11:18:25;;;;;;;;;;;26.80;48.50;;;;;;5043892;28;43032;-84
2023/07/26 11:20:52;;;;;;;;;;;26.80;48.60;;;;;;5043892;28;43869;-84
2023/07/26 11:23:18;;;;;;;;;;;26.80;48.10;;;;;;5041953;28;43005;-83
2023/07/26 11:25:47;;;;;;;;;;;26.80;48.20;;;;;;5043639;28;42796;-84
2023/07/26 11:28:13;;;;;;;;;;;23.10;46.60;;;;;;5042244;28;42991;-85
2023/07/26 11:30:41;;;;;;;;;;;26.80;49.10;;;;;;5041874;28;42963;-84
2023/07/26 11:33:06;;;;;;;;;;;26.80;48.10;;;;;;5037323;28;42815;-84
2023/07/26 11:35:42;;;;;;;;;;;26.90;48.10;;;;;;5043198;28;44349;-83
2023/07/26 11:38:08;;;;;;;;;;;26.80;47.90;;;;;;5038619;28;42982;-84
2023/07/26 11:40:40;;;;;;;;;;;26.80;47.90;;;;;;5043723;28;43061;-84
2023/07/26 11:43:06;;;;;;;;;;;26.80;47.80;;;;;;5046654;28;42973;-84
2023/07/26 11:45:32;;;;;;;;;;;26.80;47.80;;;;;;5045293;28;43130;-84
2023/07/26 11:47:57;;;;;;;;;;;26.80;47.60;;;;;;5036982;28;42997;-84
2023/07/26 11:50:24;;;;;;;;;;;26.90;47.40;;;;;;5030465;28;43522;-84
2023/07/26 11:53:05;;;;;;;;;;;26.80;47.40;;;;;;5037555;28;43081;-84
2023/07/26 11:55:32;;;;;;;;;;;26.90;47.00;;;;;;5034211;28;43654;-83
2023/07/26 11:58:03;;;;;;;;;;;26.80;47.10;;;;;;5045238;28;43018;-83
2023/07/26 12:00:30;;;;;;;;;;;26.80;47.10;;;;;;5046145;28;42976;-84
2023/07/26 12:02:57;;;;;;;;;;;26.80;47.20;;;;;;5046019;28;43002;-84
2023/07/26 12:05:28;;;;;;;;;;;26.80;47.30;;;;;;5031530;28;43583;-85
2023/07/26 12:08:00;;;;;;;;;;;26.80;47.00;;;;;;5045227;28;42959;-85
2023/07/26 12:10:27;;;;;;;;;;;26.80;46.60;;;;;;5045041;28;43442;-85
2023/07/26 12:12:53;;;;;;;;;;;26.90;47.40;;;;;;5044659;28;43439;-85
2023/07/26 12:15:18;;;;;;;;;;;26.90;47.70;;;;;;5042561;28;43042;-84
2023/07/26 12:17:54;;;;;;;;;;;26.90;48.40;;;;;;5045405;28;42955;-84
2023/07/26 12:20:20;;;;;;;;;;;26.90;48.20;;;;;;5042071;28;45068;-83
2023/07/26 12:22:56;;;;;;;;;;;26.90;48.10;;;;;;5035783;28;43002;-82
2023/07/26 12:25:32;;;;;;;;;;;26.90;48.30;;;;;;5034361;28;43009;-84
2023/07/26 12:27:58;;;;;;;;;;;26.80;48.90;;;;;;5042756;28;42925;-84
2023/07/26 12:30:24;;;;;;;;;;;26.90;49.50;;;;;;5045941;28;44122;-85
2023/07/26 12:33:06;;;;;;;;;;;26.90;49.00;;;;;;5045114;28;42860;-86
2023/07/26 12:35:33;;;;;;;;;;;26.90;48.80;;;;;;5041035;28;43771;-84
2023/07/26 12:38:06;;;;;;;;;;;26.90;47.60;;;;;;5041968;28;42981;-84
2023/07/26 12:40:31;;;;;;;;;;;27.00;45.40;;;;;;5059625;28;43106;-84
2023/07/26 12:42:57;;;;;;;;;;;26.90;45.60;;;;;;5044368;28;43060;-84
2023/07/26 12:45:22;;;;;;;;;;;26.90;44.60;;;;;;5046977;28;43067;-84
2023/07/26 12:47:48;;;;;;;;;;;26.90;45.00;;;;;;5045436;28;42910;-86
2023/07/26 12:50:13;;;;;;;;;;;26.90;45.70;;;;;;5037638;28;44767;-87
2023/07/26 12:52:40;;;;;;;;;;;26.90;46.40;;;;;;5045725;28;43066;-87
2023/07/26 12:55:05;;;;;;;;;;;26.90;45.70;;;;;;5045087;28;44286;-86
2023/07/26 12:57:31;;;;;;;;;;;26.90;44.20;;;;;;5045749;28;43114;-86
2023/07/26 12:59:56;;;;;;;;;;;26.80;44.00;;;;;;5046060;28;43735;-88
2023/07/26 13:02:22;;;;;;;;;;;26.80;42.70;;;;;;5045717;28;42848;-86
2023/07/26 13:04:47;;;;;;;;;;;26.80;42.80;;;;;;5045841;28;43194;-88
2023/07/26 13:07:13;;;;;;;;;;;26.70;42.80;;;;;;5045186;28;43788;-86
2023/07/26 13:09:38;;;;;;;;;;;26.70;42.60;;;;;;5043606;28;44984;-87
2023/07/26 13:12:04;;;;;;;;;;;26.70;42.40;;;;;;5045801;28;43206;-85
2023/07/26 13:14:29;;;;;;;;;;;26.50;42.10;;;;;;5045771;28;42947;-86
2023/07/26 13:16:55;;;;;;;;;;;26.50;42.20;;;;;;5045840;28;42911;-85
2023/07/26 13:19:20;;;;;;;;;;;26.50;43.20;;;;;;5045731;28;43750;-85
2023/07/26 13:21:46;;;;;;;;;;;26.50;43.00;;;;;;5045495;28;42979;-84
2023/07/26 13:24:11;;;;;;;;;;;26.50;43.30;;;;;;5045641;28;43669;-85
2023/07/26 13:26:37;;;;;;;;;;;26.50;43.50;;;;;;5045385;28;42891;-85
2023/07/26 13:29:02;;;;;;;;;;;26.50;43.50;;;;;;5045344;28;43495;-85
2023/07/26 13:31:28;;;;;;;;;;;26.50;43.80;;;;;;5045198;28;42894;-85
2023/07/26 13:33:54;;;;;;;;;;;26.60;44.10;;;;;;5045276;28;43596;-85
2023/07/26 13:36:22;;;;;;;;;;;26.60;44.50;;;;;;5045159;28;42819;-85
2023/07/26 13:38:48;;;;;;;;;;;26.70;44.40;;;;;;5043532;28;44446;-84
2023/07/26 13:41:13;;;;;;;;;;;26.70;44.80;;;;;;5045106;28;42883;-84
2023/07/26 13:43:39;;;;;;;;;;;26.80;44.80;;;;;;5043397;28;45718;-84
2023/07/26 13:46:04;;;;;;;;;;;26.80;43.90;;;;;;5044376;28;42982;-83
2023/07/26 13:48:30;;;;;;;;;;;26.80;43.90;;;;;;5045017;28;42986;-83
2023/07/26 13:50:55;;;;;;;;;;;26.80;43.60;;;;;;5044734;28;42974;-83
2023/07/26 13:53:21;;;;;;;;;;;26.70;42.90;;;;;;5044864;28;44013;-83
2023/07/26 13:55:46;;;;;;;;;;;26.70;43.40;;;;;;5044932;28;42998;-84
2023/07/26 13:58:12;;;;;;;;;;;26.70;43.10;;;;;;5042353;28;45459;-83
2023/07/26 14:00:37;;;;;;;;;;;26.70;43.70;;;;;;5043884;28;42892;-84
2023/07/26 14:03:03;;;;;;;;;;;26.70;43.80;;;;;;5044250;28;43546;-85
2023/07/26 14:05:29;;;;;;;;;;;26.70;43.80;;;;;;5043442;28;42896;-83
2023/07/26 14:07:55;;;;;;;;;;;26.80;43.80;;;;;;5043926;28;43387;-83
2023/07/26 14:10:20;;;;;;;;;;;26.80;44.20;;;;;;5039196;28;42956;-83
2023/07/26 14:12:46;;;;;;;;;;;26.90;43.60;;;;;;5044410;28;43711;-85